Time;durP1;ratioP1;P1;durP2;ratioP2;P2;SDS_P1;SDS_P2;PMS_P1;PMS_P2;Temp;Humidity;BMP_temperature;BMP_pressure;BME280_temperature;BME280_humidity;BME280_pressure;Samples;Min_cycle;Max_cycle;Signal;HPM_P1;HPM_P2
2022/11/27 00:00:13;;;;;;;9.88;4.55;;;;;;;5.42;100.00;102449.94;5320685;28;20395;-80
2022/11/27 00:02:44;;;;;;;13.60;4.30;;;;;;;5.44;100.00;102454.22;5324462;27;20441;-80
2022/11/27 00:05:16;;;;;;;13.18;4.32;;;;;;;5.28;100.00;102445.25;5323648;27;20044;-80
2022/11/27 00:07:47;;;;;;;12.80;4.85;;;;;;;5.34;100.00;102463.50;5327315;28;20474;-80
2022/11/27 00:10:19;;;;;;;14.05;4.65;;;;;;;5.24;100.00;102448.94;5325395;28;20126;-80
2022/11/27 00:12:50;;;;;;;16.15;5.15;;;;;;;5.13;100.00;102444.13;5324074;27;20543;-80
2022/11/27 00:15:21;;;;;;;22.58;5.35;;;;;;;5.19;100.00;102458.88;5324904;27;20032;-80
2022/11/27 00:17:53;;;;;;;15.27;4.93;;;;;;;5.00;100.00;102437.69;5323776;28;20035;-80
2022/11/27 00:20:24;;;;;;;17.85;4.35;;;;;;;4.95;100.00;102432.59;5303890;28;20039;-81
2022/11/27 00:22:56;;;;;;;17.08;4.80;;;;;;;4.96;100.00;102438.72;5319224;27;20055;-80
2022/11/27 00:25:27;;;;;;;17.25;5.43;;;;;;;5.02;100.00;102438.47;5322077;28;20036;-80
2022/11/27 00:27:58;;;;;;;22.05;5.93;;;;;;;4.79;100.00;102413.03;5321344;27;20383;-80
2022/11/27 00:30:30;;;;;;;17.67;5.18;;;;;;;4.87;100.00;102426.78;5321920;27;20553;-81
2022/11/27 00:33:01;;;;;;;13.82;4.93;;;;;;;4.80;100.00;102420.03;5303828;28;20369;-81
2022/11/27 00:35:32;;;;;;;17.05;6.53;;;;;;;4.84;100.00;102427.78;5321029;28;20028;-80
2022/11/27 00:38:04;;;;;;;16.63;4.95;;;;;;;4.72;100.00;102409.81;5317788;27;20120;-80
2022/11/27 00:40:36;;;;;;;15.93;5.40;;;;;;;4.79;100.00;102429.75;5318484;28;20099;-80
2022/11/27 00:43:07;;;;;;;17.58;6.10;;;;;;;4.80;100.00;102425.31;5317349;28;20169;-80
2022/11/27 00:45:39;;;;;;;17.60;5.97;;;;;;;4.77;100.00;102425.44;5317907;28;20048;-80
2022/11/27 00:48:11;;;;;;;13.60;5.57;;;;;;;4.77;100.00;102425.44;5316587;28;20122;-80
2022/11/27 00:50:42;;;;;;;18.08;5.65;;;;;;;4.63;100.00;102416.34;5315815;27;20043;-80
2022/11/27 00:53:14;;;;;;;15.35;5.55;;;;;;;4.69;100.00;102415.22;5316300;28;20361;-79
2022/11/27 00:55:45;;;;;;;17.60;5.85;;;;;;;4.62;100.00;102403.19;5316840;28;20446;-80
2022/11/27 00:58:16;;;;;;;18.23;6.68;;;;;;;4.63;100.00;102399.59;5317337;27;20036;-80
2022/11/27 01:00:58;;;;;;;14.07;6.28;;;;;;;4.68;100.00;102408.19;5315526;27;20025;-80
2022/11/27 01:03:30;;;;;;;16.80;6.30;;;;;;;4.68;100.00;102405.53;5313575;27;20033;-80
2022/11/27 01:06:04;;;;;;;21.90;6.20;;;;;;;4.73;100.00;102399.16;5318139;27;20564;-79
2022/11/27 01:08:36;;;;;;;15.02;5.88;;;;;;;4.71;100.00;102398.34;5322029;27;20439;-80
2022/11/27 01:11:13;;;;;;;22.48;6.82;;;;;;;4.72;100.00;102391.28;5320983;28;21600;-80
2022/11/27 01:13:45;;;;;;;18.80;5.97;;;;;;;4.70;100.00;102385.22;5320606;28;20480;-80
2022/11/27 01:16:21;;;;;;;19.58;5.95;;;;;;;4.71;100.00;102376.34;5321177;28;20074;-81
2022/11/27 01:18:55;;;;;;;17.27;6.03;;;;;;;4.54;100.00;102358.56;5321806;27;20494;-80
2022/11/27 01:21:29;;;;;;;21.75;6.13;;;;;;;4.63;100.00;102375.81;5321914;28;20483;-80
2022/11/27 01:24:02;;;;;;;17.98;6.55;;;;;;;4.58;100.00;102380.47;5323838;28;20032;-80
2022/11/27 01:26:33;;;;;;;16.13;6.70;;;;;;;4.67;100.00;102388.00;5323547;28;20031;-80
2022/11/27 01:29:05;;;;;;;22.60;6.50;;;;;;;4.64;100.00;102380.19;5303594;28;20391;-81
2022/11/27 01:31:36;;;;;;;18.30;6.35;;;;;;;4.70;100.00;102379.94;5324960;28;20055;-80
2022/11/27 01:34:13;;;;;;;15.75;6.43;;;;;;;4.75;100.00;102377.91;5326375;28;20024;-80
2022/11/27 01:36:45;;;;;;;17.50;6.32;;;;;;;4.73;100.00;102369.19;5326654;28;20021;-81
2022/11/27 01:39:18;;;;;;;18.42;6.30;;;;;;;4.76;100.00;102362.94;5325220;28;20051;-80
2022/11/27 01:41:50;;;;;;;16.33;6.03;;;;;;;4.73;100.00;102343.66;5309010;28;20112;-80
2022/11/27 01:44:24;;;;;;;23.83;6.97;;;;;;;4.74;100.00;102355.06;5324031;28;20479;-80
2022/11/27 01:47:12;;;;;;;20.52;6.22;;;;;;;4.62;100.00;102326.53;5322208;28;20039;-80
2022/11/27 01:49:49;;;;;;;18.80;6.50;;;;;;;4.60;100.00;102331.88;5300136;28;20032;-80
2022/11/27 01:52:33;;;;;;;22.50;7.85;;;;;;;4.69;100.00;102347.34;5319757;27;20039;-80
2022/11/27 01:55:20;;;;;;;18.27;7.03;;;;;;;4.77;100.00;102340.84;5316919;28;21608;-80
2022/11/27 01:58:11;;;;;;;;;;;;;;;4.78;100.00;102321.44;5321139;28;20034;-80
2022/11/27 02:00:42;;;;;;;18.30;6.20;;;;;;;4.64;100.00;102301.75;5319684;28;19927;-80
2022/11/27 02:03:14;;;;;;;22.33;7.28;;;;;;;4.67;100.00;102317.47;5320392;28;20020;-80
2022/11/27 02:05:46;;;;;;;15.05;6.25;;;;;;;4.50;100.00;102286.50;5321086;27;20036;-80
2022/11/27 02:08:17;;;;;;;20.17;6.43;;;;;;;4.50;100.00;102291.78;5320245;28;20063;-79
2022/11/27 02:11:17;;;;;;;15.55;6.50;;;;;;;4.48;100.00;102301.56;5320014;28;20118;-80
2022/11/27 02:14:17;;;;;;;21.58;6.28;;;;;;;4.42;100.00;102296.56;5294301;28;20024;-80
2022/11/27 02:17:07;;;;;;;20.50;7.15;;;;;;;4.33;100.00;102279.34;5320311;28;20028;-79
2022/11/27 02:20:02;;;;;;;18.55;6.72;;;;;;;4.37;100.00;102295.06;5318096;27;20519;-80
2022/11/27 02:22:53;;;;;;;18.65;6.68;;;;;;;4.31;100.00;102280.31;5318243;28;20546;-80
2022/11/27 02:25:43;;;;;;;18.05;7.45;;;;;;;4.27;100.00;102273.44;5300564;28;20107;-80
2022/11/27 02:28:27;;;;;;;17.17;8.25;;;;;;;4.24;100.00;102274.41;5318309;28;20150;-80
2022/11/27 02:31:09;;;;;;;20.08;7.07;;;;;;;4.26;100.00;102271.72;5318716;28;20060;-79
2022/11/27 02:33:45;;;;;;;21.88;8.13;;;;;;;4.16;100.00;102256.28;5319149;28;20032;-80
2022/11/27 02:36:26;;;;;;;16.63;7.15;;;;;;;4.28;100.00;102276.03;5317244;28;20456;-80
2022/11/27 02:39:16;;;;;;;23.30;8.48;;;;;;;4.26;100.00;102272.59;5333975;27;20024;-80
2022/11/27 02:42:07;;;;;;;13.80;7.25;;;;;;;4.18;100.00;102245.66;5319416;27;20086;-80
2022/11/27 02:44:45;;;;;;;15.88;6.90;;;;;;;4.03;100.00;102220.75;5319804;28;20028;-80
2022/11/27 02:47:17;;;;;;;16.10;7.00;;;;;;;4.22;100.00;102249.00;5319823;28;20028;-80
2022/11/27 02:49:51;;;;;;;17.38;7.15;;;;;;;4.31;100.00;102244.19;5295094;28;20031;-80
2022/11/27 02:52:26;;;;;;;16.80;7.15;;;;;;;4.34;100.00;102259.03;5317346;27;20028;-80
2022/11/27 02:55:02;;;;;;;17.70;7.15;;;;;;;4.34;100.00;102259.03;5301447;28;20139;-80
2022/11/27 02:57:36;;;;;;;16.00;6.40;;;;;;;4.40;100.00;102264.06;5319621;28;20480;-80
2022/11/27 03:00:10;;;;;;;16.17;7.30;;;;;;;4.43;100.00;102274.47;5318991;28;20352;-79
2022/11/27 03:02:51;;;;;;;19.38;7.10;;;;;;;4.42;100.00;102261.34;5320883;27;20177;-80
2022/11/27 03:05:28;;;;;;;21.65;8.95;;;;;;;4.47;100.00;102278.72;5317540;27;20121;-80
2022/11/27 03:08:28;;;;;;;10.90;5.75;;;;;;;4.41;100.00;102267.56;5321310;27;20028;-80
2022/11/27 03:11:06;;;;;;;17.63;6.85;;;;;;;4.51;100.00;102272.38;5319050;27;20135;-80
2022/11/27 03:13:52;;;;;;;16.92;6.93;;;;;;;4.56;100.00;102274.81;5321386;27;20024;-80
2022/11/27 03:16:37;;;;;;;15.25;6.47;;;;;;;4.56;100.00;102258.97;5318011;27;20388;-79
2022/11/27 03:19:20;;;;;;;15.05;7.18;;;;;;;4.50;100.00;102244.22;5301348;27;20041;-80
2022/11/27 03:21:55;;;;;;;12.48;5.78;;;;;;;4.62;100.00;102257.81;5321074;27;20032;-79
2022/11/27 03:24:28;;;;;;;14.27;6.07;;;;;;;4.59;100.00;102255.31;5321938;27;20066;-80
2022/11/27 03:27:00;;;;;;;12.38;5.50;;;;;;;4.63;100.00;102251.59;5318581;27;20078;-79
2022/11/27 03:29:42;;;;;;;15.05;6.15;;;;;;;4.66;100.00;102257.63;5317652;27;20479;-80
2022/11/27 03:32:13;;;;;;;12.88;5.15;;;;;;;4.68;100.00;102254.88;5317753;27;20028;-79
2022/11/27 03:34:46;;;;;;;10.32;5.18;;;;;;;4.67;100.00;102250.53;5316194;27;20076;-81
2022/11/27 03:37:18;;;;;;;14.18;5.63;;;;;;;4.70;100.00;102248.63;5319310;27;20032;-80
2022/11/27 03:39:50;;;;;;;12.95;5.25;;;;;;;4.69;100.00;102235.47;5316072;27;20028;-80
2022/11/27 03:42:28;;;;;;;16.08;5.93;;;;;;;4.69;100.00;102227.53;5317857;27;20032;-80
2022/11/27 03:45:24;;;;;;;12.25;5.30;;;;;;;4.79;100.00;102227.97;5287683;27;20128;-80
2022/11/27 03:48:11;;;;;;;11.00;5.53;;;;;;;4.79;100.00;102214.75;5318771;27;20036;-80
2022/11/27 03:51:16;;;;;;;10.65;4.30;;;;;;;4.82;100.00;102222.53;5318117;27;20131;-80
2022/11/27 03:54:08;;;;;;;13.70;4.43;;;;;;;4.78;100.00;102224.47;5300256;27;20078;-80
2022/11/27 03:56:46;;;;;;;12.50;4.10;;;;;;;4.85;100.00;102225.03;5307459;27;20047;-80
2022/11/27 03:59:31;;;;;;;10.13;4.68;;;;;;;4.82;100.00;102222.53;5298503;27;20111;-80
2022/11/27 04:02:02;;;;;;;10.10;4.65;;;;;;;4.83;100.00;102217.19;5315622;27;20034;-80
2022/11/27 04:04:34;;;;;;;9.30;4.10;;;;;;;4.82;100.00;102212.84;5320528;27;20713;-80
2022/11/27 04:07:05;;;;;;;8.77;4.25;;;;;;;4.87;100.00;102229.34;5317729;27;20473;-80
2022/11/27 04:09:38;;;;;;;15.02;4.57;;;;;;;4.81;100.00;102213.75;5318299;27;20079;-80
2022/11/27 04:12:09;;;;;;;10.40;4.05;;;;;;;4.90;100.00;102236.25;5315936;27;20055;-80
2022/11/27 04:14:40;;;;;;;10.20;4.05;;;;;;;4.89;100.00;102232.78;5303477;27;20019;-80
2022/11/27 04:17:12;;;;;;;10.50;4.57;;;;;;;4.81;100.00;102213.75;5319176;27;20024;-80
2022/11/27 04:19:43;;;;;;;13.32;4.30;;;;;;;4.89;100.00;102231.88;5318220;27;20457;-80
2022/11/27 04:22:14;;;;;;;14.20;4.28;;;;;;;4.98;100.00;102235.88;5318454;27;20032;-79
2022/11/27 04:24:46;;;;;;;9.07;4.47;;;;;;;4.95;100.00;102239.56;5314854;27;20112;-80
2022/11/27 04:27:17;;;;;;;8.10;3.85;;;;;;;5.00;100.00;102242.84;5318931;27;20124;-80
2022/11/27 04:29:49;;;;;;;10.18;4.28;;;;;;;5.00;100.00;102236.69;5318448;27;20392;-80
2022/11/27 04:32:20;;;;;;;9.82;4.05;;;;;;;4.95;100.00;102230.78;5317170;27;21372;-80
2022/11/27 04:34:51;;;;;;;11.00;4.05;;;;;;;4.95;100.00;102234.25;5316687;27;20028;-80
2022/11/27 04:37:23;;;;;;;8.38;4.00;;;;;;;4.96;100.00;102232.47;5313987;27;20036;-80
2022/11/27 04:39:54;;;;;;;11.93;4.03;;;;;;;4.87;100.00;102218.78;5300873;27;20039;-80
2022/11/27 04:42:26;;;;;;;13.82;4.53;;;;;;;4.95;100.00;102226.31;5315309;27;20036;-80
2022/11/27 04:44:57;;;;;;;8.18;3.60;;;;;;;4.97;100.00;102231.56;5318017;27;20036;-80
2022/11/27 04:47:29;;;;;;;12.05;4.53;;;;;;;4.98;100.00;102233.25;5300035;27;20046;-80
2022/11/27 04:50:00;;;;;;;9.68;4.00;;;;;;;4.91;100.00;102204.47;5317718;27;20440;-80
2022/11/27 04:52:32;;;;;;;8.68;4.25;;;;;;;4.98;100.00;102220.03;5314843;27;20024;-80
2022/11/27 04:55:03;;;;;;;9.95;4.25;;;;;;;4.95;100.00;102209.63;5317590;27;20077;-80
2022/11/27 04:57:35;;;;;;;10.35;4.32;;;;;;;4.95;100.00;102205.19;5315615;27;20579;-80
2022/11/27 05:00:07;;;;;;;10.30;4.38;;;;;;;4.93;100.00;102197.31;5314472;27;20029;-80
2022/11/27 05:02:38;;;;;;;8.73;4.13;;;;;;;4.93;100.00;102192.03;5298387;27;20020;-80
2022/11/27 05:05:10;;;;;;;9.45;4.15;;;;;;;5.03;100.00;102202.16;5321806;27;20047;-80
2022/11/27 05:07:42;;;;;;;9.45;4.13;;;;;;;5.02;100.00;102193.38;5339027;27;20070;-80
2022/11/27 05:10:13;;;;;;;10.00;3.95;;;;;;;5.02;100.00;102190.72;5337541;27;20085;-80
2022/11/27 05:12:44;;;;;;;9.65;3.85;;;;;;;4.91;100.00;102161.31;5336449;27;20020;-80
2022/11/27 05:15:16;;;;;;;10.65;3.80;;;;;;;5.02;100.00;102179.31;5336801;27;20065;-80
2022/11/27 05:17:47;;;;;;;8.68;4.20;;;;;;;5.05;100.00;102184.41;5338824;27;20714;-80
2022/11/27 05:20:18;;;;;;;11.10;4.22;;;;;;;5.07;100.00;102180.78;5337971;27;20114;-80
2022/11/27 05:22:50;;;;;;;7.57;4.07;;;;;;;5.04;100.00;102166.84;5339177;27;20111;-80
2022/11/27 05:25:21;;;;;;;8.80;4.05;;;;;;;5.02;100.00;102161.63;5338369;27;20127;-80
2022/11/27 05:27:53;;;;;;;10.65;4.38;;;;;;;5.01;100.00;102165.19;5338604;27;20039;-80
2022/11/27 05:30:24;;;;;;;9.82;3.95;;;;;;;4.98;100.00;102151.28;5338757;27;20032;-80
2022/11/27 05:32:55;;;;;;;9.63;3.60;;;;;;;5.05;100.00;102160.63;5339810;27;20020;-80
2022/11/27 05:35:27;;;;;;;6.22;3.55;;;;;;;5.08;100.00;102163.13;5339604;27;20035;-80
2022/11/27 05:37:58;;;;;;;9.95;4.45;;;;;;;5.06;100.00;102157.06;5336937;27;20077;-80
2022/11/27 05:40:30;;;;;;;6.30;3.60;;;;;;;5.07;100.00;102154.34;5338939;27;20109;-80
2022/11/27 05:43:01;;;;;;;9.52;3.63;;;;;;;5.17;100.00;102161.81;5339198;27;20057;-80
2022/11/27 05:45:32;;;;;;;7.57;4.15;;;;;;;5.12;100.00;102148.84;5337798;27;20016;-80
2022/11/27 05:48:04;;;;;;;10.38;3.92;;;;;;;5.19;100.00;102147.59;5336539;27;20039;-80
2022/11/27 05:50:35;;;;;;;11.55;4.05;;;;;;;5.09;100.00;102133.94;5335479;27;20031;-80
2022/11/27 05:53:06;;;;;;;9.93;3.60;;;;;;;5.13;100.00;102134.66;5336342;27;20019;-80
2022/11/27 05:55:39;;;;;;;9.43;3.42;;;;;;;5.15;100.00;102131.94;5339282;27;20468;-80
2022/11/27 05:58:10;;;;;;;6.05;3.80;;;;;;;5.19;100.00;102129.09;5341308;27;20032;-80
2022/11/27 06:00:41;;;;;;;11.73;3.70;;;;;;;5.18;100.00;102129.16;5341647;27;20027;-80
2022/11/27 06:03:13;;;;;;;7.50;3.83;;;;;;;5.20;100.00;102133.41;5338327;27;20024;-80
2022/11/27 06:05:45;;;;;;;8.85;3.47;;;;;;;5.26;100.00;102127.84;5355203;27;20085;-80
2022/11/27 06:08:16;;;;;;;9.35;4.07;;;;;;;5.24;100.00;102132.34;5342628;27;20086;-80
2022/11/27 06:10:48;;;;;;;9.10;3.42;;;;;;;5.11;100.00;102094.22;5340109;27;20400;-80
2022/11/27 06:13:22;;;;;;;8.15;3.53;;;;;;;5.28;100.00;102125.13;5340487;27;20150;-80
2022/11/27 06:15:53;;;;;;;11.52;3.50;;;;;;;5.27;100.00;102123.41;5337214;27;20051;-80
2022/11/27 06:18:25;;;;;;;6.65;3.30;;;;;;;5.12;100.00;102106.50;5342626;27;20134;-80
2022/11/27 06:20:56;;;;;;;8.43;3.47;;;;;;;5.26;100.00;102119.91;5341788;27;20390;-80
2022/11/27 06:23:28;;;;;;;9.25;3.42;;;;;;;5.28;100.00;102122.47;5342242;27;20122;-80
2022/11/27 06:26:15;;;;;;;7.60;3.70;;;;;;;5.23;100.00;102100.69;5342144;27;20024;-80
2022/11/27 06:28:48;;;;;;;9.23;3.45;;;;;;;5.27;100.00;102111.00;5341837;27;20384;-80
2022/11/27 06:31:22;;;;;;;13.45;3.60;;;;;;;5.23;100.00;102103.34;5340520;27;20051;-80
2022/11/27 06:33:55;;;;;;;9.25;3.90;;;;;;;5.24;100.00;102127.06;5338741;27;20348;-80
2022/11/27 06:36:29;;;;;;;12.32;3.90;;;;;;;5.20;100.00;102116.69;5332587;27;20027;-80
2022/11/27 06:39:04;;;;;;;12.00;3.90;;;;;;;5.22;100.00;102122.78;5341607;27;20031;-80
2022/11/27 06:41:35;;;;;;;5.68;3.78;;;;;;;5.13;100.00;102112.66;5336399;27;20023;-81
2022/11/27 06:44:09;;;;;;;10.50;4.03;;;;;;;5.11;100.00;102113.56;5338189;27;20438;-80
2022/11/27 06:46:40;;;;;;;7.32;3.45;;;;;;;5.10;100.00;102117.16;5340933;27;20027;-80
2022/11/27 06:49:12;;;;;;;8.18;3.70;;;;;;;5.05;100.00;102116.53;5329904;27;20043;-80
2022/11/27 06:51:43;;;;;;;7.93;3.70;;;;;;;5.13;100.00;102118.78;5341586;27;20102;-80
2022/11/27 06:54:14;;;;;;;11.27;4.05;;;;;;;5.07;100.00;102106.72;5341841;27;20070;-80
2022/11/27 06:56:48;;;;;;;8.68;3.80;;;;;;;5.11;100.00;102107.44;5355962;27;20020;-80
2022/11/27 06:59:19;;;;;;;9.65;4.05;;;;;;;5.01;100.00;102104.38;5341000;27;20039;-80
2022/11/27 07:01:51;;;;;;;7.10;3.67;;;;;;;4.87;100.00;102083.06;5337879;27;20032;-80
2022/11/27 07:04:22;;;;;;;11.20;4.10;;;;;;;5.01;100.00;102098.25;5341254;27;20486;-80
2022/11/27 07:06:54;;;;;;;11.48;4.22;;;;;;;4.86;100.00;102082.19;5319152;28;20420;-80
2022/11/27 07:09:25;;;;;;;15.05;4.95;;;;;;;4.93;100.00;102088.06;5320745;28;20040;-79
2022/11/27 07:11:56;;;;;;;11.30;4.80;;;;;;;4.89;100.00;102082.06;5318849;28;20024;-79
2022/11/27 07:14:28;;;;;;;10.13;4.00;;;;;;;4.93;100.00;102073.03;5320052;27;20035;-79
2022/11/27 07:16:59;;;;;;;7.57;4.43;;;;;;;4.89;100.00;102067.97;5297682;27;20072;-80
2022/11/27 07:19:31;;;;;;;10.00;4.65;;;;;;;4.82;100.00;102070.06;5318891;27;20036;-79
2022/11/27 07:22:02;;;;;;;11.05;5.43;;;;;;;4.82;100.00;102059.50;5317716;27;20036;-79
2022/11/27 07:24:34;;;;;;;10.90;5.13;;;;;;;4.74;100.00;102054.56;5301893;27;20016;-79
2022/11/27 07:27:05;;;;;;;10.45;4.93;;;;;;;4.76;100.00;102059.78;5319226;27;20035;-80
2022/11/27 07:29:37;;;;;;;13.63;4.85;;;;;;;4.79;100.00;102051.72;5297047;27;20063;-79
2022/11/27 07:32:08;;;;;;;11.85;4.97;;;;;;;4.78;100.00;102055.28;5298932;27;20030;-79
2022/11/27 07:34:39;;;;;;;9.50;4.75;;;;;;;4.73;100.00;102042.31;5319658;27;20511;-79
2022/11/27 07:37:11;;;;;;;9.70;5.30;;;;;;;4.80;100.00;102057.84;5318925;27;20124;-79
2022/11/27 07:39:42;;;;;;;15.32;5.18;;;;;;;4.77;100.00;102045.66;5320303;27;20111;-79
2022/11/27 07:42:13;;;;;;;10.25;5.07;;;;;;;4.78;100.00;102052.63;5293504;27;20028;-79
2022/11/27 07:44:45;;;;;;;10.68;4.88;;;;;;;4.77;100.00;102039.47;5317218;27;20028;-79
2022/11/27 07:47:16;;;;;;;13.10;5.43;;;;;;;4.83;100.00;102044.47;5319393;27;20059;-80
2022/11/27 07:49:47;;;;;;;12.00;5.25;;;;;;;4.82;100.00;102041.00;5318187;27;20056;-80
2022/11/27 07:52:19;;;;;;;13.02;6.07;;;;;;;4.85;100.00;102034.69;5319127;27;20020;-80
2022/11/27 07:54:50;;;;;;;16.15;6.15;;;;;;;4.85;100.00;102024.97;5297729;27;20020;-79
2022/11/27 07:57:21;;;;;;;15.73;6.10;;;;;;;4.86;100.00;102010.81;5296164;27;20499;-79
2022/11/27 07:59:53;;;;;;;16.15;5.90;;;;;;;4.85;100.00;102010.88;5317667;27;20119;-79
2022/11/27 08:02:25;;;;;;;16.33;5.75;;;;;;;4.85;100.00;102003.81;5319345;27;20415;-80
2022/11/27 08:04:56;;;;;;;12.48;5.78;;;;;;;4.91;100.00;102003.50;5316168;27;20083;-79
2022/11/27 08:07:38;;;;;;;16.38;7.25;;;;;;;4.99;100.00;102016.34;5317103;27;20024;-80
2022/11/27 08:10:10;;;;;;;12.40;6.60;;;;;;;4.99;100.00;102011.03;5314832;28;20036;-80
2022/11/27 08:12:41;;;;;;;13.00;6.18;;;;;;;4.87;100.00;101982.59;5293357;28;20031;-80
2022/11/27 08:15:13;;;;;;;15.00;6.78;;;;;;;5.05;100.00;102013.41;5321457;28;20032;-80
2022/11/27 08:17:44;;;;;;;12.10;6.20;;;;;;;5.06;100.00;102008.94;5319097;28;20468;-80
2022/11/27 08:20:16;;;;;;;12.15;7.25;;;;;;;5.06;100.00;102015.09;5297621;28;20038;-80
2022/11/27 08:22:47;;;;;;;12.85;6.20;;;;;;;5.08;100.00;102015.00;5317859;27;20027;-80
2022/11/27 08:25:19;;;;;;;14.15;7.18;;;;;;;5.05;100.00;102004.59;5317646;27;20110;-80
2022/11/27 08:27:50;;;;;;;13.80;6.72;;;;;;;5.16;100.00;102014.63;5316185;28;20376;-80
2022/11/27 08:30:25;;;;;;;13.95;7.03;;;;;;;5.10;100.00;101994.63;5317967;28;20032;-80
2022/11/27 08:32:56;;;;;;;14.65;6.65;;;;;;;5.17;100.00;102011.91;5312336;27;20441;-80
2022/11/27 08:35:27;;;;;;;15.57;7.78;;;;;;;5.17;100.00;102001.34;5314573;28;20024;-80
2022/11/27 08:37:59;;;;;;;13.57;6.97;;;;;;;5.20;100.00;102011.75;5318409;28;20047;-80
2022/11/27 08:40:30;;;;;;;13.32;7.93;;;;;;;5.16;100.00;102009.34;5316622;28;20397;-79
2022/11/27 08:43:02;;;;;;;13.98;7.20;;;;;;;5.22;100.00;102009.88;5316672;28;20495;-80
2022/11/27 08:45:33;;;;;;;12.43;7.30;;;;;;;5.21;100.00;102007.31;5294471;28;20035;-80
2022/11/27 08:48:04;;;;;;;13.60;7.72;;;;;;;5.26;100.00;102005.31;5316898;28;20162;-80
2022/11/27 08:50:36;;;;;;;15.35;8.63;;;;;;;5.35;100.00;102003.94;5318313;27;20111;-80
2022/11/27 08:53:08;;;;;;;14.82;8.30;;;;;;;5.35;100.00;102006.59;5302949;28;20020;-80
2022/11/27 08:55:39;;;;;;;15.85;8.10;;;;;;;5.32;100.00;102009.41;5317344;28;20066;-80
2022/11/27 08:58:11;;;;;;;15.98;8.48;;;;;;;5.26;100.00;101995.56;5314308;27;20043;-80
2022/11/27 09:00:42;;;;;;;13.93;8.00;;;;;;;5.37;100.00;102017.97;5320957;27;20026;-80
2022/11/27 09:03:13;;;;;;;16.60;9.25;;;;;;;5.36;100.00;102017.09;5321091;28;20034;-80
2022/11/27 09:05:45;;;;;;;15.68;8.35;;;;;;;5.40;100.00;102010.72;5320656;27;20048;-80
2022/11/27 09:08:19;;;;;;;12.05;8.13;;;;;;;5.45;100.00;102013.09;5300853;28;20069;-80
2022/11/27 09:10:50;;;;;;;14.35;7.80;;;;;;;5.43;100.00;102018.47;5317005;28;20442;-80
2022/11/27 09:13:22;;;;;;;15.30;8.68;;;;;;;5.46;100.00;102017.47;5314458;28;20115;-81
2022/11/27 09:15:55;;;;;;;16.63;9.60;;;;;;;5.48;100.00;102010.31;5317297;28;20020;-81
2022/11/27 09:18:27;;;;;;;17.35;9.80;;;;;;;5.47;100.00;102005.97;5297188;28;20028;-81
2022/11/27 09:21:19;;;;;;;21.00;9.90;;;;;;;5.55;100.00;102013.50;5318948;27;20027;-81
2022/11/27 09:23:54;;;;;;;16.80;8.98;;;;;;;5.53;100.00;102010.91;5316857;28;20110;-80
2022/11/27 09:26:27;;;;;;;15.98;9.15;;;;;;;5.56;100.00;102008.13;5320533;28;20036;-81
2022/11/27 09:28:59;;;;;;;18.08;9.20;;;;;;;5.57;100.00;102004.50;5320330;27;20123;-81
2022/11/27 09:31:30;;;;;;;19.15;9.68;;;;;;;5.61;100.00;102005.22;5319476;27;20124;-81
2022/11/27 09:34:03;;;;;;;16.50;10.00;;;;;;;5.63;100.00;102003.38;5324482;27;20032;-81
2022/11/27 09:36:35;;;;;;;14.10;9.00;;;;;;;5.63;100.00;102013.94;5295623;28;20032;-81
2022/11/27 09:39:06;;;;;;;14.18;8.77;;;;;;;5.62;100.00;102005.13;5316956;28;20823;-81
2022/11/27 09:41:41;;;;;;;20.40;10.13;;;;;;;5.72;100.00;102004.66;5317993;27;21305;-81
2022/11/27 09:44:17;;;;;;;15.85;10.60;;;;;;;5.76;100.00;102000.91;5324212;27;20023;-81
2022/11/27 09:46:50;;;;;;;16.63;10.32;;;;;;;5.78;100.00;101996.38;5322005;28;20031;-81
2022/11/27 09:49:44;;;;;;;19.80;10.75;;;;;;;5.83;100.00;101989.88;5306427;28;20040;-81
2022/11/27 09:52:19;;;;;;;17.52;10.68;;;;;;;5.87;100.00;101995.84;5322222;27;20028;-81
2022/11/27 09:55:08;;;;;;;16.10;10.43;;;;;;;5.84;100.00;101981.00;5323178;28;20031;-81
2022/11/27 09:57:40;;;;;;;17.55;10.95;;;;;;;5.79;100.00;101972.47;5321526;28;20024;-81
2022/11/27 10:00:17;;;;;;;18.70;11.98;;;;;;;5.92;100.00;101971.78;5321682;27;20036;-81
2022/11/27 10:02:49;;;;;;;19.52;11.00;;;;;;;5.87;100.00;101967.63;5304233;28;20020;-80
2022/11/27 10:05:31;;;;;;;21.17;11.95;;;;;;;5.88;100.00;101969.31;5325023;27;20051;-81
2022/11/27 10:08:25;;;;;;;18.75;11.85;;;;;;;5.94;100.00;101952.22;5327631;28;20036;-79
2022/11/27 10:11:18;;;;;;;18.27;11.02;;;;;;;6.10;100.00;101969.94;5328253;28;20024;-80
2022/11/27 10:13:55;;;;;;;18.38;10.80;;;;;;;6.05;100.00;101955.16;5327395;28;20024;-80
2022/11/27 10:16:42;;;;;;;19.30;11.13;;;;;;;6.02;100.00;101947.38;5327260;28;20027;-80
2022/11/27 10:19:19;;;;;;;;;;;;;;;6.13;100.00;101951.22;5326335;28;20527;-80
2022/11/27 10:22:00;;;;;;;18.40;10.60;;;;;;;6.10;100.00;101946.09;5331175;27;19915;-80
2022/11/27 10:24:54;;;;;;;20.38;11.63;;;;;;;6.21;100.00;101938.41;5331322;27;20434;-80
2022/11/27 10:27:38;;;;;;;21.80;11.07;;;;;;;6.21;100.00;101930.47;5307567;28;20480;-80
2022/11/27 10:30:19;;;;;;;17.75;11.23;;;;;;;6.22;100.00;101927.72;5324969;28;20054;-80
2022/11/27 10:32:54;;;;;;;15.93;10.88;;;;;;;6.28;100.00;101936.28;5322609;28;20649;-80
2022/11/27 10:35:38;;;;;;;15.88;10.52;;;;;;;6.20;100.00;101921.63;5309725;28;20043;-80
2022/11/27 10:38:21;;;;;;;17.98;10.20;;;;;;;6.24;100.00;101919.66;5326928;28;20105;-80
2022/11/27 10:41:14;;;;;;;17.30;9.73;;;;;;;6.24;100.00;101912.59;5307062;28;20503;-80
2022/11/27 10:43:51;;;;;;;20.05;10.35;;;;;;;6.30;100.00;101914.03;5303556;28;20056;-80
2022/11/27 10:46:36;;;;;;;17.38;10.48;;;;;;;6.35;100.00;101913.78;5300775;28;20063;-80
2022/11/27 10:49:08;;;;;;;16.17;10.20;;;;;;;6.37;100.00;101909.22;5324791;28;20050;-81
2022/11/27 10:51:40;;;;;;;16.85;10.30;;;;;;;6.41;100.00;101916.91;5326655;28;20020;-81
2022/11/27 10:54:31;;;;;;;14.35;10.90;;;;;;;6.33;100.00;101903.25;5313386;28;20057;-81
2022/11/27 10:57:39;;;;;;;17.00;11.38;;;;;;;6.32;100.00;101901.53;5325595;28;20542;-81
2022/11/27 11:00:19;;;;;;;16.35;10.88;;;;;;;6.32;100.00;101896.25;5326834;28;20595;-81
2022/11/27 11:03:01;;;;;;;16.02;10.00;;;;;;;6.29;100.00;101893.75;5326592;28;20107;-81
2022/11/27 11:05:33;;;;;;;17.95;10.45;;;;;;;6.32;100.00;101896.25;5327261;27;20381;-81
2022/11/27 11:08:16;;;;;;;16.80;10.07;;;;;;;6.37;100.00;101885.38;5326707;28;20032;-81
2022/11/27 11:10:59;;;;;;;13.75;9.48;;;;;;;6.34;100.00;101886.41;5324040;27;20024;-81
2022/11/27 11:13:51;;;;;;;15.48;9.38;;;;;;;6.34;100.00;101875.78;5308035;28;20119;-81
2022/11/27 11:16:29;;;;;;;13.40;10.00;;;;;;;6.33;100.00;101868.81;5325178;28;20128;-81
2022/11/27 11:19:01;;;;;;;14.48;9.63;;;;;;;6.32;100.00;101861.78;5326869;28;20121;-81
2022/11/27 11:21:37;;;;;;;17.25;10.00;;;;;;;6.32;100.00;101864.44;5326716;28;20027;-81
2022/11/27 11:24:27;;;;;;;18.27;9.95;;;;;;;6.32;100.00;101856.50;5325459;28;20031;-81
2022/11/27 11:27:26;;;;;;;15.13;9.38;;;;;;;6.42;100.00;101855.00;5319386;28;20032;-81
2022/11/27 11:30:03;;;;;;;14.73;9.77;;;;;;;6.39;100.00;101852.53;5313153;27;20024;-81
2022/11/27 11:32:37;;;;;;;15.13;9.95;;;;;;;6.29;100.00;101838.13;5325796;28;20175;-81
2022/11/27 11:35:27;;;;;;;14.40;10.20;;;;;;;6.39;100.00;101831.34;5314085;28;20029;-81
2022/11/27 11:38:01;;;;;;;17.55;9.15;;;;;;;6.47;100.00;101827.38;5325660;28;20099;-81
2022/11/27 11:40:36;;;;;;;15.40;10.45;;;;;;;6.40;100.00;101819.81;5323063;28;20020;-81
2022/11/27 11:43:23;;;;;;;15.25;10.68;;;;;;;6.40;100.00;101824.25;5322712;28;20104;-81
2022/11/27 11:46:06;;;;;;;13.80;9.18;;;;;;;6.37;100.00;101813.84;5313980;28;20472;-81
2022/11/27 11:48:37;;;;;;;17.75;10.25;;;;;;;6.44;100.00;101807.22;5310253;28;20093;-81
2022/11/27 11:51:24;;;;;;;18.30;11.27;;;;;;;6.50;100.00;101803.34;5324749;27;20028;-81
2022/11/27 11:54:02;;;;;;;;;;;;;;;6.57;100.00;101794.06;5326802;28;20069;-79
2022/11/27 11:56:43;;;;;;;20.40;11.10;;;;;;;6.51;100.00;101800.59;5325577;28;19912;-80